Time;durP1;ratioP1;P1;durP2;ratioP2;P2;SDS_P1;SDS_P2;PMS_P1;PMS_P2;Temp;Humidity;BMP_temperature;BMP_pressure;BME280_temperature;BME280_humidity;BME280_pressure;Samples;Min_cycle;Max_cycle;Signal;HPM_P1;HPM_P2
2022/02/11 00:02:18;;;;;;;1.50;1.40;;;22.60;62.70;;;;;;5093385;28;21019;-86
2022/02/11 00:07:33;;;;;;;3.33;1.77;;;22.60;62.60;;;;;;5093337;28;20443;-80
2022/02/11 00:09:59;;;;;;;1.80;1.70;;;22.60;62.70;;;;;;5093306;28;20435;-86
2022/02/11 00:12:28;;;;;;;1.73;1.63;;;22.50;62.60;;;;;;5093398;28;20440;-80
2022/02/11 00:15:04;;;;;;;1.77;1.63;;;22.60;62.60;;;;;;5093176;28;20486;-86
2022/02/11 00:17:31;;;;;;;1.63;1.53;;;22.50;62.50;;;;;;5095295;28;20841;-80
2022/02/11 00:19:58;;;;;;;1.80;1.63;;;22.50;62.50;;;;;;5097409;28;20800;-86
2022/02/11 00:22:26;;;;;;;1.50;1.40;;;22.50;62.40;;;;;;5097183;28;20440;-80
2022/02/11 00:24:54;;;;;;;2.10;1.90;;;22.50;62.50;;;;;;5097155;28;20440;-80
2022/02/11 00:30:48;;;;;;;1.43;1.33;;;22.50;62.40;;;;;;5095832;28;20436;-83
2022/02/11 00:33:22;;;;;;;1.50;1.40;;;22.50;62.40;;;;;;5097096;28;20490;-83
2022/02/11 00:35:54;;;;;;;2.33;1.80;;;22.50;62.40;;;;;;5097027;28;20775;-80
2022/02/11 00:38:28;;;;;;;1.60;1.43;;;22.50;62.30;;;;;;5096918;28;20514;-80
2022/02/11 01:03:15;;;;;;;1.30;1.20;;;22.40;62.10;;;;;;5119206;28;20434;-80
2022/02/11 01:05:42;;;;;;;1.50;1.40;;;22.40;62.10;;;;;;5111095;28;20848;-86
2022/02/11 01:08:08;;;;;;;1.67;1.57;;;22.40;62.10;;;;;;5110726;28;20787;-85
2022/02/11 01:10:35;;;;;;;1.60;1.30;;;22.40;62.00;;;;;;5110820;28;20926;-80
2022/02/11 01:13:02;;;;;;;1.73;1.50;;;22.40;62.00;;;;;;5110701;28;20435;-86
2022/02/11 01:15:32;;;;;;;1.40;1.30;;;22.40;62.00;;;;;;5110739;28;20435;-80
2022/02/11 01:18:01;;;;;;;1.30;1.20;;;22.40;61.90;;;;;;5110670;28;20443;-86
2022/02/11 01:20:43;;;;;;;1.50;1.40;;;22.40;61.90;;;;;;5110582;28;20797;-80
2022/02/11 01:23:19;;;;;;;1.50;1.30;;;22.40;61.90;;;;;;5110619;28;20442;-86
2022/02/11 01:26:01;;;;;;;1.50;1.40;;;22.40;61.90;;;;;;5110723;28;20533;-86
2022/02/11 01:28:40;;;;;;;1.50;1.40;;;22.40;61.80;;;;;;5110569;28;20431;-80
2022/02/11 01:31:19;;;;;;;1.30;1.20;;;22.40;61.80;;;;;;5110400;28;20435;-80
2022/02/11 01:36:51;;;;;;;1.43;1.33;;;22.30;61.70;;;;;;5105060;28;20423;-86
2022/02/11 01:45:20;;;;;;;1.40;1.30;;;22.40;61.80;;;;;;5110188;28;20513;-86
2022/02/11 01:48:06;;;;;;;1.20;1.03;;;22.30;61.70;;;;;;5110002;28;20795;-86
2022/02/11 01:50:55;;;;;;;1.50;1.40;;;22.30;61.70;;;;;;5110155;28;20508;-80
2022/02/11 01:53:32;;;;;;;1.37;1.27;;;22.30;61.60;;;;;;5110054;28;20446;-80
2022/02/11 01:56:11;;;;;;;1.50;1.20;;;22.30;61.60;;;;;;5108340;28;20443;-80
2022/02/11 01:59:20;;;;;;;1.50;1.40;;;22.30;61.60;;;;;;5096436;28;20919;-83
2022/02/11 02:02:24;;;;;;;1.67;1.30;;;22.30;61.50;;;;;;5096273;28;20847;-81
2022/02/11 02:16:10;;;;;;;1.47;1.10;;;22.20;61.40;;;;;;5095759;28;20428;-88
2022/02/11 02:24:10;;;;;;;1.20;1.10;;;22.20;61.30;;;;;;5061820;28;20562;-88
2022/02/11 02:27:00;;;;;;;1.30;1.20;;;22.20;61.30;;;;;;5095735;28;20480;-87
2022/02/11 02:32:57;;;;;;;1.40;1.10;;;22.30;61.30;;;;;;5095701;28;20432;-82
2022/02/11 02:38:38;;;;;;;1.37;1.20;;;22.20;61.20;;;;;;5095881;28;20442;-82
2022/02/11 02:57:50;;;;;;;1.30;1.07;;;22.10;60.90;;;;;;5095774;28;20802;-82
2022/02/11 03:14:46;;;;;;;1.27;1.03;;;22.10;60.90;;;;;;5095022;28;20453;-88
2022/02/11 04:20:53;;;;;;;2.03;1.13;;;21.90;60.30;;;;;;5036087;28;20450;-82
2022/02/11 04:56:27;;;;;;;1.53;1.27;;;21.90;60.10;;;;;;5093128;28;20828;-82
2022/02/11 05:01:40;;;;;;;1.23;1.13;;;21.90;60.00;;;;;;5093229;28;20419;-82
2022/02/11 05:04:07;;;;;;;1.33;1.13;;;21.90;60.00;;;;;;5093018;28;20439;-82
2022/02/11 05:06:34;;;;;;;1.63;1.30;;;21.90;60.00;;;;;;5093040;28;20491;-88
2022/02/11 05:09:02;;;;;;;1.97;1.20;;;21.90;60.00;;;;;;5093127;28;20443;-88
2022/02/11 05:11:30;;;;;;;1.40;1.30;;;21.90;60.00;;;;;;5093148;28;20444;-89
2022/02/11 05:13:57;;;;;;;1.10;0.90;;;21.90;60.00;;;;;;5093248;28;20791;-86
2022/02/11 05:16:23;;;;;;;1.10;1.00;;;21.90;60.00;;;;;;5093289;28;20458;-81
2022/02/11 05:18:50;;;;;;;1.30;1.20;;;21.90;60.20;;;;;;5093032;28;20440;-82
2022/02/11 05:21:18;;;;;;;1.20;1.03;;;21.80;60.20;;;;;;5093459;28;20852;-83
2022/02/11 05:23:45;;;;;;;1.77;1.20;;;21.90;60.40;;;;;;5093798;28;20472;-89
2022/02/11 05:26:11;;;;;;;1.67;1.00;;;21.90;61.10;;;;;;5092933;28;20486;-84
2022/02/11 05:28:41;;;;;;;1.10;1.00;;;21.90;60.40;;;;;;5091953;28;20454;-82
2022/02/11 05:31:08;;;;;;;1.93;1.17;;;21.90;60.40;;;;;;5081944;28;20531;-88
2022/02/11 05:33:35;;;;;;;1.20;1.00;;;21.90;60.50;;;;;;5096457;28;20455;-87
2022/02/11 05:36:02;;;;;;;1.43;1.30;;;21.90;60.30;;;;;;5096597;28;20444;-82
2022/02/11 05:38:29;;;;;;;3.67;1.20;;;21.90;60.30;;;;;;5095807;28;20436;-82
2022/02/11 05:40:56;;;;;;;1.30;1.20;;;21.80;60.10;;;;;;5096029;28;20432;-86
2022/02/11 05:43:23;;;;;;;1.50;1.00;;;21.80;60.10;;;;;;5093161;28;20922;-85
2022/02/11 05:45:51;;;;;;;1.30;0.97;;;21.90;60.30;;;;;;5095353;28;20487;-89
2022/02/11 05:48:18;;;;;;;1.63;1.47;;;21.80;60.10;;;;;;5095364;28;20809;-82
2022/02/11 05:50:45;;;;;;;2.23;1.20;;;21.80;60.20;;;;;;5096307;28;20440;-87
2022/02/11 05:53:11;;;;;;;1.30;1.20;;;22.00;60.40;;;;;;5096533;28;20444;-92
2022/02/11 05:55:39;;;;;;;1.30;1.20;;;21.80;60.40;;;;;;5096443;28;20462;-92
2022/02/11 05:58:05;;;;;;;1.53;1.17;;;21.80;60.30;;;;;;5096151;28;20493;-82
2022/02/11 06:00:32;;;;;;;1.60;1.20;;;21.90;60.40;;;;;;5096574;28;20442;-82
2022/02/11 06:03:00;;;;;;;1.77;1.13;;;21.80;60.30;;;;;;5096176;28;20467;-83
2022/02/11 06:05:27;;;;;;;1.60;1.47;;;21.80;60.40;;;;;;5096251;28;20795;-82
2022/02/11 06:07:54;;;;;;;1.20;1.10;;;21.90;60.40;;;;;;5095976;28;20443;-82
2022/02/11 06:10:21;;;;;;;2.27;1.00;;;21.80;60.30;;;;;;5096147;28;20588;-82
2022/02/11 06:12:47;;;;;;;3.03;1.50;;;21.90;60.40;;;;;;5096051;28;20440;-82
2022/02/11 06:15:14;;;;;;;1.47;1.10;;;21.90;60.50;;;;;;5096212;28;20444;-83
2022/02/11 06:17:41;;;;;;;1.50;1.40;;;21.90;60.60;;;;;;5096106;28;20522;-83
2022/02/11 06:20:10;;;;;;;1.70;1.30;;;21.90;60.50;;;;;;5096004;28;20945;-86
2022/02/11 06:22:37;;;;;;;1.43;1.00;;;21.80;60.50;;;;;;5094722;28;20513;-91
2022/02/11 06:25:05;;;;;;;2.83;1.40;;;21.80;60.50;;;;;;5095884;28;20451;-84
2022/02/11 06:27:31;;;;;;;1.50;1.40;;;21.80;60.50;;;;;;5095538;28;20482;-82
2022/02/11 06:29:58;;;;;;;1.40;1.20;;;21.80;60.50;;;;;;5095965;28;20448;-83
2022/02/11 06:32:25;;;;;;;1.67;1.13;;;21.80;60.40;;;;;;5095704;28;20467;-89
2022/02/11 06:34:55;;;;;;;3.33;1.43;;;21.80;60.40;;;;;;5095893;28;20447;-82
2022/02/11 06:37:23;;;;;;;1.10;1.00;;;21.90;60.40;;;;;;5095253;28;20440;-90
2022/02/11 06:39:50;;;;;;;1.80;1.10;;;21.90;60.50;;;;;;5095745;28;20436;-90
2022/02/11 06:42:17;;;;;;;2.23;1.47;;;21.90;60.50;;;;;;5095419;28;20435;-89
2022/02/11 06:44:45;;;;;;;1.53;1.43;;;21.90;60.70;;;;;;5095324;28;20448;-85
2022/02/11 06:47:12;;;;;;;1.50;1.23;;;21.90;60.70;;;;;;5095165;28;20578;-82
2022/02/11 06:49:39;;;;;;;1.30;1.20;;;21.90;60.50;;;;;;5095307;28;20443;-82
2022/02/11 06:52:06;;;;;;;1.93;1.33;;;21.90;60.50;;;;;;5094321;28;20435;-81
2022/02/11 06:54:34;;;;;;;2.43;1.10;;;21.90;60.60;;;;;;5093816;28;20960;-84
2022/02/11 06:57:01;;;;;;;1.37;1.17;;;21.90;60.70;;;;;;5094854;28;20447;-88
2022/02/11 06:59:27;;;;;;;1.60;1.30;;;21.90;60.60;;;;;;5094605;28;20447;-81
2022/02/11 07:01:54;;;;;;;1.97;1.10;;;21.90;60.60;;;;;;5094905;28;20990;-81
2022/02/11 07:04:21;;;;;;;3.30;1.30;;;21.90;60.60;;;;;;5095063;28;20431;-81
2022/02/11 07:06:48;;;;;;;1.90;1.30;;;22.00;60.70;;;;;;5095253;28;20483;-81
2022/02/11 07:09:15;;;;;;;2.70;1.13;;;22.00;60.70;;;;;;5094250;28;20566;-81
2022/02/11 07:11:43;;;;;;;1.80;1.17;;;21.90;60.60;;;;;;5095172;28;20450;-89
2022/02/11 07:14:11;;;;;;;1.83;1.07;;;21.90;60.50;;;;;;5093480;28;20452;-81
2022/02/11 07:16:38;;;;;;;2.53;1.07;;;21.90;60.50;;;;;;5093895;28;20497;-81
2022/02/11 07:19:05;;;;;;;2.20;1.30;;;21.90;60.50;;;;;;5094121;28;20440;-82
2022/02/11 07:21:33;;;;;;;1.77;1.10;;;21.90;60.50;;;;;;5094684;28;20443;-81
2022/02/11 07:24:00;;;;;;;1.30;1.07;;;21.90;60.50;;;;;;5094738;28;20443;-89
2022/02/11 07:26:26;;;;;;;2.10;1.30;;;21.80;60.30;;;;;;5094572;28;20487;-88
2022/02/11 07:28:54;;;;;;;2.33;1.10;;;21.80;60.30;;;;;;5093917;28;20444;-82
2022/02/11 07:31:21;;;;;;;1.20;1.10;;;21.90;61.20;;;;;;5093517;28;20436;-81
2022/02/11 07:33:48;;;;;;;2.00;1.50;;;21.90;60.30;;;;;;5094458;28;20442;-82
2022/02/11 07:36:15;;;;;;;1.70;1.03;;;21.90;60.30;;;;;;5093413;28;20448;-82
2022/02/11 07:38:41;;;;;;;2.07;1.20;;;21.90;60.30;;;;;;5093209;28;20444;-81
2022/02/11 07:41:08;;;;;;;1.70;1.57;;;21.90;60.30;;;;;;5092700;28;20447;-81
2022/02/11 07:43:35;;;;;;;2.33;1.07;;;21.90;60.30;;;;;;5092922;28;20810;-83
2022/02/11 07:46:04;;;;;;;2.63;1.47;;;21.90;60.20;;;;;;5092561;28;20507;-81
2022/02/11 07:48:31;;;;;;;2.23;2.03;;;21.90;60.20;;;;;;5093286;28;20476;-90
2022/02/11 07:50:58;;;;;;;4.90;1.30;;;21.80;60.00;;;;;;5092767;28;20459;-82
2022/02/11 07:53:24;;;;;;;1.83;1.10;;;21.80;60.00;;;;;;5092501;28;20463;-81
2022/02/11 07:55:52;;;;;;;2.10;1.30;;;21.80;60.00;;;;;;5092011;28;20452;-81
2022/02/11 07:58:23;;;;;;;1.90;1.20;;;21.80;60.00;;;;;;5092690;28;20452;-85
2022/02/11 08:00:50;;;;;;;1.63;1.10;;;21.90;60.10;;;;;;5092366;28;21120;-81
2022/02/11 08:03:19;;;;;;;3.00;1.90;;;21.90;60.00;;;;;;5093371;28;20463;-85
2022/02/11 08:05:46;;;;;;;3.20;1.60;;;21.90;60.10;;;;;;5093975;28;20444;-85
2022/02/11 08:08:12;;;;;;;3.50;1.30;;;21.90;60.00;;;;;;5093343;28;20487;-81
2022/02/11 08:10:39;;;;;;;3.43;1.43;;;21.90;60.00;;;;;;5093479;28;20452;-81
2022/02/11 08:13:06;;;;;;;2.90;1.63;;;21.90;60.00;;;;;;5093704;28;20463;-81
2022/02/11 08:15:33;;;;;;;9.30;2.13;;;21.90;60.00;;;;;;5093906;28;20435;-88
2022/02/11 08:17:59;;;;;;;5.67;1.47;;;21.90;60.00;;;;;;5093342;28;20444;-81
2022/02/11 08:20:28;;;;;;;7.90;1.40;;;21.80;59.90;;;;;;5091670;28;20444;-81
2022/02/11 08:22:54;;;;;;;2.97;1.43;;;21.80;60.00;;;;;;5091648;28;20642;-82
2022/02/11 08:25:21;;;;;;;5.80;1.20;;;21.80;60.00;;;;;;5092181;28;20455;-81
2022/02/11 08:27:50;;;;;;;2.10;1.37;;;21.80;60.00;;;;;;5091430;28;20494;-81
2022/02/11 08:30:19;;;;;;;6.63;1.43;;;21.80;60.10;;;;;;5092147;28;20439;-87
2022/02/11 08:32:46;;;;;;;4.70;1.37;;;21.80;60.00;;;;;;5092279;28;20495;-82
2022/02/11 08:35:13;;;;;;;2.90;1.33;;;21.80;60.00;;;;;;5092980;28;20444;-83
2022/02/11 08:37:41;;;;;;;3.47;1.90;;;21.80;60.00;;;;;;5093778;28;20995;-82
2022/02/11 08:40:09;;;;;;;1.90;1.43;;;21.80;60.00;;;;;;5092972;28;20496;-82
2022/02/11 08:42:36;;;;;;;2.57;1.20;;;21.80;60.00;;;;;;5093503;28;20949;-83
2022/02/11 08:45:03;;;;;;;3.33;1.40;;;21.80;60.00;;;;;;5093073;28;20468;-83
2022/02/11 08:47:32;;;;;;;2.27;1.40;;;21.80;60.00;;;;;;5093167;28;20977;-83
2022/02/11 08:50:00;;;;;;;1.60;1.40;;;21.80;60.00;;;;;;5093310;28;20986;-83
2022/02/11 08:52:27;;;;;;;3.67;1.37;;;21.80;60.00;;;;;;5093280;28;20448;-83
2022/02/11 08:54:55;;;;;;;1.43;1.20;;;21.80;60.00;;;;;;5092758;28;20942;-83
2022/02/11 08:57:22;;;;;;;4.70;1.50;;;21.80;60.00;;;;;;5092079;28;20517;-83
2022/02/11 08:59:49;;;;;;;2.60;1.43;;;21.80;60.00;;;;;;5092026;28;20447;-83
2022/02/11 09:02:17;;;;;;;4.37;1.57;;;21.80;60.00;;;;;;5091930;28;20829;-82
2022/02/11 09:04:44;;;;;;;1.40;1.10;;;21.80;60.00;;;;;;5092617;28;20474;-90
2022/02/11 09:07:11;;;;;;;3.43;1.63;;;21.80;60.00;;;;;;5093993;28;20483;-83
2022/02/11 09:09:39;;;;;;;4.13;1.20;;;21.80;60.00;;;;;;5097036;28;20443;-85
2022/02/11 09:12:08;;;;;;;1.90;1.30;;;21.80;60.00;;;;;;5098176;28;20443;-83
2022/02/11 09:14:35;;;;;;;4.33;1.77;;;21.80;60.00;;;;;;5098002;28;20436;-84
2022/02/11 09:17:01;;;;;;;2.40;1.33;;;21.90;60.30;;;;;;5097682;28;20446;-86
2022/02/11 09:19:28;;;;;;;3.10;1.50;;;22.00;60.00;;;;;;5097403;28;20459;-84
2022/02/11 09:21:55;;;;;;;2.80;1.30;;;22.00;59.90;;;;;;5097037;28;20444;-88
2022/02/11 09:24:22;;;;;;;2.90;1.30;;;22.10;59.90;;;;;;5097186;28;20934;-88
2022/02/11 09:26:48;;;;;;;2.07;1.47;;;22.10;59.90;;;;;;5096580;28;20486;-83
2022/02/11 09:29:17;;;;;;;8.10;1.77;;;22.10;60.00;;;;;;5079199;28;20452;-86
2022/02/11 09:31:43;;;;;;;3.67;1.30;;;22.20;60.00;;;;;;5096676;28;20462;-88
2022/02/11 09:34:12;;;;;;;5.80;1.90;;;22.20;60.10;;;;;;5097027;28;20443;-93
2022/02/11 09:36:40;;;;;;;4.57;1.63;;;22.20;60.00;;;;;;5096833;28;20519;-84
2022/02/11 09:39:09;;;;;;;5.47;4.23;;;22.30;60.00;;;;;;5096776;28;20448;-85
2022/02/11 09:41:37;;;;;;;2.87;2.67;;;22.40;60.10;;;;;;5096647;28;20444;-85
2022/02/11 09:44:06;;;;;;;4.63;2.47;;;22.30;60.00;;;;;;5096933;28;20919;-86
2022/02/11 09:46:37;;;;;;;8.50;3.50;;;22.40;60.10;;;;;;5096503;28;20475;-86
2022/02/11 09:49:05;;;;;;;6.63;3.10;;;22.40;60.00;;;;;;5096905;28;20454;-86
2022/02/11 09:51:32;;;;;;;5.37;3.40;;;22.50;60.00;;;;;;5096398;28;20435;-85
2022/02/11 09:53:59;;;;;;;4.00;3.30;;;22.60;59.90;;;;;;5095933;28;20443;-85
2022/02/11 09:56:26;;;;;;;6.50;2.70;;;22.60;59.80;;;;;;5096030;28;20459;-86
2022/02/11 09:58:53;;;;;;;8.57;5.70;;;22.70;59.70;;;;;;5095853;28;20447;-87
2022/02/11 10:01:21;;;;;;;4.60;3.90;;;22.70;59.60;;;;;;5095699;28;20791;-86
2022/02/11 10:04:09;;;;;;;5.10;4.60;;;22.70;59.70;;;;;;5096147;28;20432;-86
2022/02/11 10:06:37;;;;;;;4.90;3.47;;;22.70;59.60;;;;;;5100700;28;20527;-86
2022/02/11 10:09:05;;;;;;;6.20;3.60;;;22.70;59.60;;;;;;5098893;28;20451;-86
2022/02/11 10:11:32;;;;;;;4.97;3.53;;;22.80;59.60;;;;;;5102504;28;20440;-82
2022/02/11 10:14:18;;;;;;;4.37;3.87;;;22.80;59.50;;;;;;5100464;28;20428;-84
2022/02/11 10:16:53;;;;;;;3.80;3.00;;;22.90;59.60;;;;;;5096944;28;20440;-84
2022/02/11 10:19:44;;;;;;;5.90;3.67;;;23.00;59.50;;;;;;5097395;28;20797;-83
2022/02/11 10:22:13;;;;;;;6.80;4.33;;;23.00;59.40;;;;;;5096020;28;20440;-87
2022/02/11 10:24:40;;;;;;;8.27;4.93;;;22.90;59.50;;;;;;5096083;28;20436;-85
2022/02/11 10:27:22;;;;;;;4.73;4.33;;;22.90;59.50;;;;;;5095588;28;20479;-87
2022/02/11 10:29:50;;;;;;;4.17;3.87;;;22.90;59.50;;;;;;5096343;28;20432;-85
2022/02/11 10:32:17;;;;;;;4.50;4.10;;;22.90;59.60;;;;;;5095675;28;20806;-86
2022/02/11 10:34:53;;;;;;;4.07;3.67;;;22.90;60.40;;;;;;5094430;28;20446;-84
2022/02/11 10:37:20;;;;;;;6.27;4.40;;;22.90;59.70;;;;;;5094674;28;20530;-88
2022/02/11 10:39:56;;;;;;;4.67;3.20;;;22.80;59.80;;;;;;5094551;28;20444;-84
2022/02/11 10:42:42;;;;;;;5.40;4.40;;;22.80;59.60;;;;;;5093392;28;20848;-82
2022/02/11 10:45:27;;;;;;;4.63;4.13;;;22.80;59.60;;;;;;5092847;28;20455;-85
2022/02/11 10:48:11;;;;;;;9.27;3.73;;;22.80;59.70;;;;;;5095029;28;20467;-82
2022/02/11 10:50:40;;;;;;;7.60;3.20;;;22.80;59.80;;;;;;5090672;28;20436;-82
2022/02/11 10:53:08;;;;;;;4.37;3.40;;;22.70;59.80;;;;;;5093117;28;20439;-83
2022/02/11 10:55:52;;;;;;;5.27;3.37;;;22.70;59.80;;;;;;5094565;28;20526;-81
2022/02/11 10:58:20;;;;;;;5.80;5.23;;;22.70;59.90;;;;;;5092105;28;20470;-88
2022/02/11 11:00:47;;;;;;;11.60;6.27;;;22.70;60.00;;;;;;5093913;28;20435;-82
2022/02/11 11:03:15;;;;;;;11.93;6.67;;;22.70;60.00;;;;;;5092672;28;20941;-81
2022/02/11 11:05:45;;;;;;;7.70;6.30;;;22.60;60.00;;;;;;5092998;28;20444;-86
2022/02/11 11:08:13;;;;;;;6.43;5.83;;;22.60;60.10;;;;;;5093236;28;20479;-87
2022/02/11 11:10:42;;;;;;;7.20;5.40;;;22.60;60.10;;;;;;5093315;28;20444;-86
2022/02/11 11:13:12;;;;;;;6.37;5.77;;;22.60;60.20;;;;;;5093329;28;20443;-82
2022/02/11 11:15:39;;;;;;;5.73;4.33;;;22.60;60.10;;;;;;5093053;28;20448;-83
2022/02/11 11:18:07;;;;;;;5.57;5.07;;;22.60;60.20;;;;;;5094974;28;20447;-83
2022/02/11 11:20:35;;;;;;;4.80;4.40;;;22.60;60.20;;;;;;5093902;28;20448;-87
2022/02/11 11:23:11;;;;;;;6.03;5.17;;;22.60;60.20;;;;;;5093148;28;20841;-83
2022/02/11 11:25:59;;;;;;;5.13;4.47;;;22.60;60.20;;;;;;5093353;28;20448;-82
2022/02/11 11:28:46;;;;;;;4.97;4.20;;;22.60;60.10;;;;;;5093070;28;20502;-85
2022/02/11 11:31:18;;;;;;;5.10;4.70;;;22.60;60.20;;;;;;5094393;28;20460;-87
2022/02/11 11:33:46;;;;;;;6.30;4.80;;;22.60;60.30;;;;;;5094291;28;20448;-87
2022/02/11 11:36:17;;;;;;;5.13;4.17;;;22.60;60.30;;;;;;5094551;28;20782;-87
2022/02/11 11:39:05;;;;;;;6.40;5.00;;;22.70;60.40;;;;;;5094507;28;20475;-82
2022/02/11 11:41:35;;;;;;;4.70;4.30;;;22.70;60.30;;;;;;5094633;28;20454;-88
2022/02/11 11:44:18;;;;;;;5.53;3.90;;;22.60;60.30;;;;;;5094477;28;20436;-87
2022/02/11 11:46:48;;;;;;;6.23;3.57;;;22.70;58.70;;;;;;5093928;28;20547;-88
2022/02/11 11:49:16;;;;;;;5.87;3.73;;;22.60;58.80;;;;;;5093511;28;20506;-83
2022/02/11 11:52:08;;;;;;;4.43;4.03;;;22.60;59.40;;;;;;5076853;28;20505;-81
2022/02/11 11:54:37;;;;;;;4.93;3.93;;;22.70;59.60;;;;;;5092954;28;20432;-87
2022/02/11 11:57:05;;;;;;;4.30;3.30;;;22.70;59.70;;;;;;5093145;28;20440;-89
2022/02/11 11:59:37;;;;;;;5.27;3.70;;;22.70;59.80;;;;;;5093174;28;20436;-87
2022/02/11 12:02:05;;;;;;;7.40;3.60;;;22.70;59.50;;;;;;5093149;28;20481;-93
2022/02/11 12:04:33;;;;;;;8.60;7.67;;;22.80;59.70;;;;;;5092444;28;20948;-82
2022/02/11 12:07:02;;;;;;;4.87;3.97;;;22.80;59.80;;;;;;5093441;28;20447;-82
2022/02/11 12:09:30;;;;;;;5.10;4.03;;;22.90;59.80;;;;;;5092377;28;20444;-82
2022/02/11 12:12:00;;;;;;;6.90;5.07;;;22.90;59.90;;;;;;5093880;28;20436;-91
2022/02/11 12:14:28;;;;;;;6.90;4.47;;;22.90;59.90;;;;;;5094017;28;20790;-82
2022/02/11 12:16:56;;;;;;;4.83;4.30;;;23.00;59.90;;;;;;5093725;28;20904;-90
2022/02/11 12:19:24;;;;;;;5.63;4.97;;;23.00;59.90;;;;;;5094070;28;20451;-91
2022/02/11 12:21:51;;;;;;;5.50;4.67;;;23.10;59.90;;;;;;5093101;28;20531;-90
2022/02/11 12:27:23;;;;;;;6.83;6.13;;;23.20;60.40;;;;;;5092492;28;20971;-92
2022/02/11 12:29:52;;;;;;;6.50;5.90;;;23.20;61.10;;;;;;5091720;28;20440;-83
2022/02/11 12:32:20;;;;;;;10.30;8.83;;;23.20;61.40;;;;;;5091576;28;20452;-85
2022/02/11 12:34:55;;;;;;;15.43;10.80;;;23.20;62.00;;;;;;5091121;28;20934;-81
2022/02/11 12:37:23;;;;;;;44.93;17.00;;;23.30;62.70;;;;;;5093068;28;20782;-80
2022/02/11 12:40:05;;;;;;;48.20;23.63;;;23.20;62.90;;;;;;5092420;28;20444;-81
2022/02/11 12:42:35;;;;;;;93.77;33.13;;;23.30;63.00;;;;;;5092507;28;20452;-81
2022/02/11 12:45:03;;;;;;;70.23;31.40;;;23.30;63.30;;;;;;5092243;28;20508;-81
2022/02/11 12:47:31;;;;;;;80.27;34.33;;;23.30;64.20;;;;;;5091508;28;20489;-81
2022/02/11 12:50:00;;;;;;;93.90;35.80;;;23.30;63.50;;;;;;5090823;28;21093;-81
2022/02/11 12:52:29;;;;;;;87.23;34.60;;;23.30;63.60;;;;;;5092614;28;20890;-82
2022/02/11 12:55:06;;;;;;;93.47;32.13;;;23.40;63.80;;;;;;5093264;28;20443;-89
2022/02/11 12:57:34;;;;;;;73.97;31.30;;;23.30;63.90;;;;;;5097854;28;20452;-93
2022/02/11 13:00:02;;;;;;;72.83;31.60;;;23.30;63.80;;;;;;5099088;28;20455;-84
2022/02/11 13:02:30;;;;;;;79.20;28.87;;;23.30;63.70;;;;;;5111088;28;20468;-81
2022/02/11 13:05:09;;;;;;;64.13;27.67;;;23.40;63.70;;;;;;5108159;28;20458;-81
2022/02/11 13:07:37;;;;;;;70.93;29.40;;;23.40;63.50;;;;;;5108927;28;20933;-81
2022/02/11 13:10:06;;;;;;;70.37;25.70;;;23.40;63.70;;;;;;5105959;28;20547;-82
2022/02/11 13:12:40;;;;;;;63.33;27.67;;;23.40;63.80;;;;;;5105546;28;20445;-82
2022/02/11 13:15:09;;;;;;;52.90;24.33;;;23.40;64.10;;;;;;5105589;28;20444;-81
2022/02/11 13:17:35;;;;;;;58.40;25.10;;;23.40;64.20;;;;;;5109667;28;20832;-82
2022/02/11 13:20:13;;;;;;;63.83;24.80;;;23.40;64.20;;;;;;5110553;28;20423;-83
2022/02/11 13:22:42;;;;;;;54.93;23.00;;;23.40;64.00;;;;;;5107115;28;20511;-82
2022/02/11 13:25:10;;;;;;;50.60;22.00;;;23.30;64.00;;;;;;5108611;28;20420;-81
2022/02/11 13:27:47;;;;;;;53.83;21.60;;;23.30;63.90;;;;;;5106084;22;20585;-80
2022/02/11 13:30:19;;;;;;;50.23;21.33;;;23.30;63.90;;;;;;5070816;28;20425;-81
2022/02/11 13:32:46;;;;;;;58.80;21.63;;;23.30;64.10;;;;;;5046922;28;20455;-81
2022/02/11 13:35:12;;;;;;;53.43;21.43;;;23.30;64.10;;;;;;5037792;28;20442;-85
2022/02/11 13:37:41;;;;;;;45.90;20.47;;;23.30;64.50;;;;;;5044054;28;20442;-81
2022/02/11 13:40:17;;;;;;;50.67;21.50;;;23.30;64.60;;;;;;5056645;22;20439;-81
2022/02/11 13:42:55;;;;;;;46.77;20.90;;;23.40;64.60;;;;;;5067043;22;20481;-83
2022/02/11 13:45:23;;;;;;;53.43;23.10;;;23.40;64.40;;;;;;5043416;28;20433;-81
2022/02/11 13:48:08;;;;;;;43.37;21.23;;;23.40;64.40;;;;;;5038781;28;20442;-81
2022/02/11 13:51:02;;;;;;;47.83;20.07;;;23.40;64.30;;;;;;5042491;28;20442;-81
2022/02/11 13:53:35;;;;;;;40.50;19.77;;;23.40;64.50;;;;;;5050837;28;20453;-82
2022/02/11 13:58:35;;;;;;;41.33;18.00;;;23.40;64.40;;;;;;5066348;28;20481;-89
2022/02/11 14:01:03;;;;;;;38.67;18.43;;;23.40;64.30;;;;;;5057920;28;20466;-96
2022/02/11 14:03:31;;;;;;;37.53;16.93;;;23.40;64.30;;;;;;5056144;28;20446;-80
2022/02/11 14:06:01;;;;;;;33.67;17.37;;;23.50;64.40;;;;;;5056194;28;20450;-80
2022/02/11 14:08:42;;;;;;;33.10;16.97;;;23.50;64.40;;;;;;5056319;28;20568;-80
2022/02/11 14:11:10;;;;;;;32.10;15.07;;;23.50;64.30;;;;;;5049726;28;20435;-80
2022/02/11 14:13:39;;;;;;;33.43;16.43;;;23.50;64.30;;;;;;5036308;28;20446;-80
2022/02/11 14:16:06;;;;;;;34.03;16.47;;;23.60;64.40;;;;;;5036088;28;20443;-84
2022/02/11 14:18:34;;;;;;;29.43;16.10;;;23.50;64.40;;;;;;5035992;28;20447;-90
2022/02/11 14:21:00;;;;;;;31.17;14.00;;;23.60;64.30;;;;;;5035987;28;20439;-88
2022/02/11 14:23:28;;;;;;;25.80;14.47;;;23.50;64.20;;;;;;5035956;28;20937;-86
2022/02/11 14:25:55;;;;;;;28.70;14.60;;;23.50;64.20;;;;;;5035759;28;20506;-89
2022/02/11 14:28:25;;;;;;;26.50;13.60;;;23.60;64.20;;;;;;5035986;28;20470;-91
2022/02/11 14:30:54;;;;;;;27.93;14.53;;;23.60;64.20;;;;;;5035762;28;20463;-85
2022/02/11 14:33:22;;;;;;;25.87;14.50;;;23.60;64.20;;;;;;5035827;28;20443;-90
2022/02/11 14:35:49;;;;;;;27.00;12.50;;;23.60;64.20;;;;;;5035960;28;20447;-89
2022/02/11 14:38:16;;;;;;;31.73;14.37;;;23.60;64.20;;;;;;5035677;28;20487;-85
2022/02/11 14:41:45;;;;;;;27.63;13.80;;;23.60;64.20;;;;;;5035758;28;20940;-87
2022/02/11 14:43:31;;;;;;;25.77;11.60;;;23.70;64.20;;;;;;5035388;28;21015;-84
2022/02/11 14:45:59;;;;;;;25.87;12.37;;;23.70;64.30;;;;;;5055301;28;21094;-84
2022/02/11 14:48:26;;;;;;;18.40;10.97;;;23.60;64.00;;;;;;5049312;28;20481;-84
2022/02/11 14:50:53;;;;;;;23.40;11.30;;;23.60;63.90;;;;;;5052385;28;20792;-85
2022/02/11 14:53:20;;;;;;;27.93;13.03;;;23.70;64.10;;;;;;5051323;28;20438;-84
2022/02/11 14:55:46;;;;;;;22.60;11.87;;;23.80;64.20;;;;;;5037595;28;20446;-84
2022/02/11 14:58:14;;;;;;;17.83;10.27;;;23.70;64.10;;;;;;5042440;28;20466;-83
2022/02/11 15:00:40;;;;;;;21.00;11.17;;;23.70;64.10;;;;;;5046413;28;20493;-84
2022/02/11 15:03:09;;;;;;;21.73;11.27;;;23.60;63.90;;;;;;5050135;28;20442;-85
2022/02/11 15:05:36;;;;;;;20.00;10.37;;;23.70;64.00;;;;;;5043017;28;20435;-84
2022/02/11 15:08:03;;;;;;;16.70;9.73;;;23.70;64.00;;;;;;5045496;28;20449;-85
2022/02/11 15:10:30;;;;;;;18.27;10.90;;;23.60;63.90;;;;;;5045049;28;20516;-85
2022/02/11 15:12:57;;;;;;;16.40;9.40;;;23.60;63.90;;;;;;5043225;28;20440;-84
2022/02/11 15:15:25;;;;;;;15.37;9.97;;;23.70;64.80;;;;;;5045509;28;20446;-85
2022/02/11 15:17:52;;;;;;;18.90;9.63;;;23.70;64.00;;;;;;5042514;28;20442;-85
2022/02/11 15:20:20;;;;;;;15.97;9.33;;;23.60;63.90;;;;;;5045293;28;21296;-85
2022/02/11 15:22:47;;;;;;;16.67;10.30;;;23.60;63.90;;;;;;5034527;28;20445;-85
2022/02/11 15:25:14;;;;;;;18.57;8.90;;;23.60;63.90;;;;;;5036827;28;20446;-85
2022/02/11 15:27:41;;;;;;;17.37;9.57;;;23.60;63.80;;;;;;5034373;28;20482;-85
2022/02/11 15:30:11;;;;;;;17.47;8.40;;;23.50;63.80;;;;;;5039024;28;20481;-83
2022/02/11 15:32:38;;;;;;;18.60;8.80;;;23.60;63.80;;;;;;5051985;28;20449;-83
2022/02/11 15:35:07;;;;;;;18.13;8.20;;;23.50;63.70;;;;;;5044802;28;20436;-80
2022/02/11 15:37:36;;;;;;;11.10;7.30;;;23.50;63.40;;;;;;5041538;28;20478;-86
2022/02/11 15:40:03;;;;;;;14.07;7.50;;;23.50;63.30;;;;;;5051614;28;20450;-84
2022/02/11 15:42:30;;;;;;;12.73;8.00;;;23.50;63.30;;;;;;5040445;28;20447;-85
2022/02/11 15:44:57;;;;;;;12.60;6.30;;;23.60;63.40;;;;;;5045894;28;20466;-85
2022/02/11 15:47:25;;;;;;;11.83;6.80;;;23.50;63.30;;;;;;5049251;28;20438;-87
2022/02/11 15:49:52;;;;;;;13.97;7.60;;;23.50;63.30;;;;;;5052621;28;20987;-88
2022/02/11 15:52:19;;;;;;;10.00;6.63;;;23.50;63.30;;;;;;5053992;28;20441;-83
2022/02/11 15:54:47;;;;;;;13.23;7.40;;;23.50;63.20;;;;;;5047581;28;20443;-81
2022/02/11 15:57:14;;;;;;;12.60;6.70;;;23.50;63.20;;;;;;5050604;28;20839;-81
2022/02/11 15:59:43;;;;;;;9.23;6.23;;;23.50;63.30;;;;;;5053925;28;20453;-80
2022/02/11 16:02:10;;;;;;;15.90;6.93;;;23.40;63.10;;;;;;5054747;28;20472;-83
2022/02/11 16:04:37;;;;;;;11.50;6.50;;;23.50;63.20;;;;;;5054178;28;20460;-84
2022/02/11 16:07:04;;;;;;;13.43;7.17;;;23.50;63.10;;;;;;5053645;28;20924;-81
2022/02/11 16:09:31;;;;;;;9.60;5.43;;;23.40;63.10;;;;;;5053336;28;20485;-86
2022/02/11 16:12:00;;;;;;;13.60;6.63;;;23.40;63.10;;;;;;5053405;28;20453;-90
2022/02/11 16:14:27;;;;;;;11.60;5.77;;;23.40;63.20;;;;;;5053792;28;20450;-83